Time;durP1;ratioP1;P1;durP2;ratioP2;P2;SDS_P1;SDS_P2;PMS_P1;PMS_P2;Temp;Humidity;BMP_temperature;BMP_pressure;BME280_temperature;BME280_humidity;BME280_pressure;Samples;Min_cycle;Max_cycle;Signal;HPM_P1;HPM_P2
2022/01/09 00:00:54;;;;;;;1.10;1.03;;;;;;;2.34;95.43;98315.00;5070446;28;20178;-74
2022/01/09 00:03:20;;;;;;;2.33;1.13;;;;;;;2.36;94.86;98312.00;5071816;28;20566;-75
2022/01/09 00:05:45;;;;;;;1.97;1.27;;;;;;;2.42;94.79;98321.53;5071557;28;20175;-75
2022/01/09 00:08:10;;;;;;;1.63;1.53;;;;;;;2.42;94.82;98318.84;5071406;28;20185;-74
2022/01/09 00:10:36;;;;;;;3.63;1.13;;;;;;;2.40;94.64;98307.56;5079978;28;20262;-74
2022/01/09 00:13:02;;;;;;;1.00;0.90;;;;;;;2.52;94.52;98298.91;5074956;28;20569;-74
2022/01/09 00:15:27;;;;;;;1.10;1.00;;;;;;;2.47;94.38;98293.66;5071211;28;20193;-74
2022/01/09 00:17:52;;;;;;;0.80;0.73;;;;;;;2.58;93.96;98284.97;5070615;28;20410;-74
2022/01/09 00:20:18;;;;;;;1.20;1.10;;;;;;;2.42;94.22;98274.94;5070315;28;20221;-74
2022/01/09 00:25:10;;;;;;;0.43;0.30;;;;;;;2.45;94.50;98267.00;5071392;28;20736;-74
2022/01/09 00:27:38;;;;;;;0.77;0.60;;;;;;;2.45;94.23;98266.22;5071138;28;20175;-73
2022/01/09 00:30:08;;;;;;;1.80;1.70;;;;;;;2.47;94.10;98264.03;5070628;28;20276;-74
2022/01/09 00:32:35;;;;;;;1.60;1.23;;;;;;;2.47;94.38;98267.53;5071170;28;20171;-73
2022/01/09 00:35:00;;;;;;;0.43;0.40;;;;;;;2.50;94.45;98258.81;5070982;28;20198;-75
2022/01/09 00:37:26;;;;;;;2.30;1.30;;;;;;;2.54;93.86;98258.97;5069792;28;20240;-73
2022/01/09 00:39:54;;;;;;;1.43;1.13;;;;;;;2.52;93.73;98248.50;5070880;28;20255;-74
2022/01/09 00:42:20;;;;;;;1.40;1.23;;;;;;;2.49;93.91;98243.75;5070981;28;20593;-74
2022/01/09 00:44:45;;;;;;;0.50;0.50;;;;;;;2.47;93.92;98243.25;5070829;28;20197;-74
2022/01/09 00:47:10;;;;;;;0.37;0.37;;;;;;;2.47;94.19;98229.00;5070756;28;20193;-72
2022/01/09 00:49:36;;;;;;;0.30;0.23;;;;;;;2.46;94.79;98225.50;5071210;28;20182;-74
2022/01/09 00:52:01;;;;;;;0.23;0.23;;;;;;;2.49;94.71;98229.47;5069586;28;20258;-73
2022/01/09 00:54:27;;;;;;;1.33;1.20;;;;;;;2.45;94.35;98217.72;5069506;28;20232;-74
2022/01/09 00:56:52;;;;;;;1.20;1.10;;;;;;;2.45;94.69;98217.72;5069374;28;20182;-73
2022/01/09 00:59:17;;;;;;;1.13;1.03;;;;;;;2.46;94.67;98212.03;5070580;28;20206;-74
2022/01/09 01:01:43;;;;;;;2.43;0.97;;;;;;;2.49;94.82;98211.41;5070742;28;20244;-73
2022/01/09 01:04:09;;;;;;;1.70;1.10;;;;;;;2.39;94.88;98199.00;5070630;28;20183;-74
2022/01/09 01:06:34;;;;;;;0.77;0.77;;;;;;;2.44;95.48;98213.44;5069237;28;20170;-74
2022/01/09 01:08:59;;;;;;;0.57;0.20;;;;;;;2.49;95.64;98213.31;5070978;28;20174;-74
2022/01/09 01:11:25;;;;;;;0.80;0.80;;;;;;;2.47;95.53;98205.53;5070681;28;20673;-73
2022/01/09 01:13:50;;;;;;;1.00;0.90;;;;;;;2.48;95.56;98196.34;5070530;28;20603;-73
2022/01/09 01:16:15;;;;;;;1.33;1.10;;;;;;;2.38;96.02;98181.25;5070442;28;20170;-74
2022/01/09 01:18:44;;;;;;;0.90;0.90;;;;;;;2.38;96.23;98194.72;5070430;28;20198;-73
2022/01/09 01:21:09;;;;;;;1.23;0.97;;;;;;;2.38;96.40;98191.25;5070525;28;20202;-74
2022/01/09 01:23:34;;;;;;;0.77;0.40;;;;;;;2.41;96.76;98181.72;5070211;28;20267;-73
2022/01/09 01:26:02;;;;;;;0.77;0.77;;;;;;;2.46;96.13;98184.28;5070165;28;20236;-73
2022/01/09 01:28:27;;;;;;;0.30;0.30;;;;;;;2.41;96.32;98170.94;5070651;28;20192;-73
2022/01/09 01:30:53;;;;;;;0.70;0.70;;;;;;;2.41;96.34;98169.03;5070349;28;20253;-73
2022/01/09 01:33:18;;;;;;;1.90;0.70;;;;;;;2.46;96.37;98170.78;5070335;28;20715;-74
2022/01/09 01:35:44;;;;;;;0.43;0.40;;;;;;;2.34;96.33;98163.34;5068797;28;20202;-74
2022/01/09 01:38:09;;;;;;;0.73;0.70;;;;;;;2.42;96.82;98161.75;5070586;28;20178;-73
2022/01/09 01:40:35;;;;;;;2.53;1.10;;;;;;;2.41;96.82;98158.28;5070609;28;20530;-74
2022/01/09 01:43:00;;;;;;;1.20;1.10;;;;;;;2.44;96.53;98159.53;5073911;28;20174;-74
2022/01/09 01:45:25;;;;;;;0.23;0.23;;;;;;;2.58;95.85;98155.59;5072812;28;20171;-73
2022/01/09 01:47:51;;;;;;;0.50;0.50;;;;;;;2.54;95.48;98159.25;5072997;28;20200;-73
2022/01/09 01:50:16;;;;;;;1.10;1.00;;;;;;;2.42;95.96;98143.69;5074131;28;20206;-74
2022/01/09 01:52:47;;;;;;;1.30;0.57;;;;;;;2.46;96.39;98144.66;5074144;28;20531;-73
2022/01/09 01:55:14;;;;;;;2.33;1.00;;;;;;;2.38;96.92;98150.81;5073851;28;20158;-73
2022/01/09 01:57:42;;;;;;;0.47;0.40;;;;;;;2.51;96.99;98149.09;5072589;28;20178;-73
2022/01/09 02:00:12;;;;;;;0.63;0.63;;;;;;;2.54;96.93;98143.09;5072517;28;20210;-74
2022/01/09 02:02:38;;;;;;;0.73;0.73;;;;;;;2.51;96.47;98141.81;5072455;28;20578;-74
2022/01/09 02:05:05;;;;;;;0.10;0.10;;;;;;;2.51;97.15;98130.25;5072336;28;20206;-73
2022/01/09 02:07:32;;;;;;;0.50;0.50;;;;;;;2.44;97.18;98124.50;5073819;28;20576;-73
2022/01/09 02:09:57;;;;;;;0.60;0.60;;;;;;;2.41;98.04;98122.44;5073750;28;20704;-73
2022/01/09 02:12:23;;;;;;;0.97;0.70;;;;;;;2.43;98.25;98110.25;5072258;28;20218;-73
2022/01/09 02:14:48;;;;;;;0.70;0.70;;;;;;;2.28;99.12;98121.47;5071961;28;20178;-73
2022/01/09 02:17:22;;;;;;;0.67;0.67;;;;;;;2.33;99.79;98114.06;5072244;28;20182;-74
2022/01/09 02:19:55;;;;;;;1.90;0.70;;;;;;;2.27;100.00;98091.03;5073408;28;20347;-74
2022/01/09 02:22:21;;;;;;;1.13;0.93;;;;;;;2.30;100.00;98098.50;5072042;28;20568;-74
2022/01/09 02:24:46;;;;;;;0.30;0.20;;;;;;;2.37;100.00;98103.44;5073195;28;20166;-73
2022/01/09 02:27:12;;;;;;;0.50;0.50;;;;;;;2.36;100.00;98110.72;5073356;28;20170;-73
2022/01/09 02:29:38;;;;;;;0.60;0.60;;;;;;;2.24;100.00;98093.59;5071943;28;20236;-73
2022/01/09 02:32:04;;;;;;;1.27;1.13;;;;;;;2.24;100.00;98093.59;5073360;28;20631;-73
2022/01/09 02:34:33;;;;;;;0.73;0.60;;;;;;;2.25;100.00;98095.97;5073467;28;20163;-75
2022/01/09 02:36:58;;;;;;;0.17;0.17;;;;;;;2.36;100.00;98096.47;5071591;28;20174;-74
2022/01/09 02:39:23;;;;;;;0.80;0.80;;;;;;;2.31;100.00;98083.91;5073196;28;20524;-74
2022/01/09 02:41:49;;;;;;;1.60;0.20;;;;;;;2.36;100.00;98094.56;5073213;28;20662;-74
2022/01/09 02:44:14;;;;;;;0.80;0.60;;;;;;;2.42;100.00;98086.31;5073495;28;20254;-73
2022/01/09 02:49:08;;;;;;;0.73;0.67;;;;;;;2.45;100.00;98073.00;5073024;28;20276;-75
2022/01/09 02:51:39;;;;;;;0.53;0.53;;;;;;;2.34;100.00;98088.69;5071708;28;20208;-74
2022/01/09 02:56:53;;;;;;;0.77;0.77;;;;;;;2.41;100.00;98071.25;5061288;28;20252;-75
2022/01/09 02:59:19;;;;;;;1.10;1.00;;;;;;;2.40;100.00;98067.78;5073011;28;20198;-76
2022/01/09 03:01:44;;;;;;;0.33;0.33;;;;;;;2.40;100.00;98075.84;5071649;28;20623;-74
2022/01/09 03:04:09;;;;;;;0.67;0.67;;;;;;;2.43;100.00;98061.75;5071735;28;20171;-75
2022/01/09 03:06:35;;;;;;;0.53;0.53;;;;;;;2.49;100.00;98065.88;5071397;28;20180;-77
2022/01/09 03:09:01;;;;;;;1.07;0.63;;;;;;;2.46;100.00;98069.22;5072871;28;20626;-76
2022/01/09 03:11:27;;;;;;;0.70;0.70;;;;;;;2.53;100.00;98068.72;5071500;28;20181;-75
2022/01/09 03:13:52;;;;;;;0.80;0.77;;;;;;;2.54;100.00;98070.31;5072767;28;20174;-75
2022/01/09 03:16:17;;;;;;;0.50;0.50;;;;;;;2.58;100.00;98071.25;5072532;28;20206;-76
2022/01/09 03:18:43;;;;;;;4.10;1.00;;;;;;;2.55;100.00;98061.91;5071260;28;20206;-74
2022/01/09 03:21:08;;;;;;;0.80;0.80;;;;;;;2.52;100.00;98062.56;5072645;28;20178;-76
2022/01/09 03:23:33;;;;;;;0.40;0.40;;;;;;;2.67;100.00;98067.47;5072536;28;20534;-74
2022/01/09 03:26:02;;;;;;;0.27;0.27;;;;;;;2.74;100.00;98056.19;5071056;28;20657;-75
2022/01/09 03:28:27;;;;;;;0.80;0.73;;;;;;;2.65;100.00;98058.09;5072242;28;20407;-74
2022/01/09 03:30:53;;;;;;;0.93;0.60;;;;;;;2.71;100.00;98064.91;5072429;28;20272;-75
2022/01/09 03:33:18;;;;;;;0.73;0.73;;;;;;;2.70;100.00;98063.34;5069703;28;20190;-76
2022/01/09 03:35:43;;;;;;;0.87;0.77;;;;;;;2.71;100.00;98064.91;5068966;28;20534;-75
2022/01/09 03:38:09;;;;;;;0.43;0.33;;;;;;;2.83;100.00;98056.97;5071023;28;20634;-75
2022/01/09 03:40:34;;;;;;;0.47;0.47;;;;;;;2.82;100.00;98060.00;5074153;28;20198;-77
2022/01/09 03:43:00;;;;;;;0.53;0.53;;;;;;;2.78;100.00;98069.84;5072056;28;20274;-75
2022/01/09 03:45:26;;;;;;;1.97;0.67;;;;;;;2.74;100.00;98082.34;5070725;28;20178;-75
2022/01/09 03:47:52;;;;;;;0.53;0.50;;;;;;;2.85;100.00;98075.53;5072229;28;20515;-76
2022/01/09 03:50:18;;;;;;;0.70;0.70;;;;;;;2.88;100.00;98064.09;5072065;28;20179;-75
2022/01/09 03:52:46;;;;;;;0.30;0.30;;;;;;;2.89;100.00;98074.59;5072196;28;20185;-74
2022/01/09 03:55:12;;;;;;;0.53;0.50;;;;;;;2.99;100.00;98071.53;5071832;28;20706;-74
2022/01/09 03:57:38;;;;;;;1.13;0.63;;;;;;;2.90;100.00;98072.69;5071870;28;20270;-75
2022/01/09 04:00:08;;;;;;;0.40;0.40;;;;;;;2.93;100.00;98067.44;5070548;28;20206;-74
2022/01/09 04:02:34;;;;;;;0.40;0.40;;;;;;;2.91;100.00;98068.88;5071759;28;20206;-74
2022/01/09 04:04:59;;;;;;;0.77;0.70;;;;;;;3.01;100.00;98071.22;5069292;28;20213;-73
2022/01/09 04:07:24;;;;;;;0.67;0.57;;;;;;;3.03;100.00;98077.09;5070355;28;20261;-75
2022/01/09 04:09:50;;;;;;;1.23;0.87;;;;;;;2.93;100.00;98080.13;5070456;28;20286;-75
2022/01/09 04:12:18;;;;;;;0.67;0.67;;;;;;;3.02;100.00;98085.50;5070355;28;20179;-76
2022/01/09 04:14:48;;;;;;;0.60;0.50;;;;;;;2.90;100.00;98070.78;5070065;28;20171;-74
2022/01/09 04:17:42;;;;;;;0.33;0.33;;;;;;;2.90;100.00;98081.56;5071542;28;20253;-76
2022/01/09 04:20:08;;;;;;;0.90;0.60;;;;;;;2.99;100.00;98085.03;5071538;28;20212;-75
2022/01/09 04:22:34;;;;;;;0.60;0.60;;;;;;;3.02;100.00;98086.28;5071382;28;20262;-74
2022/01/09 04:24:59;;;;;;;0.70;0.70;;;;;;;3.02;100.00;98086.28;5071489;28;20579;-76
2022/01/09 04:27:25;;;;;;;1.00;0.77;;;;;;;2.95;100.00;98077.91;5071217;28;20174;-74
2022/01/09 04:29:51;;;;;;;0.57;0.57;;;;;;;3.00;100.00;98085.81;5070011;28;20452;-75
2022/01/09 04:32:16;;;;;;;0.30;0.30;;;;;;;3.05;100.00;98095.69;5071375;28;20214;-75
2022/01/09 04:34:42;;;;;;;0.20;0.10;;;;;;;3.01;100.00;98083.91;5071000;28;20267;-75
2022/01/09 04:37:07;;;;;;;0.57;0.57;;;;;;;2.96;100.00;98082.97;5070095;28;20187;-75
2022/01/09 04:39:33;;;;;;;0.40;0.40;;;;;;;2.85;100.00;98089.00;5070203;28;20202;-74
2022/01/09 04:41:58;;;;;;;0.40;0.40;;;;;;;2.89;100.00;98082.69;5071004;28;20189;-73
2022/01/09 04:44:24;;;;;;;0.00;0.00;;;;;;;2.91;100.00;98085.06;5069794;28;20216;-75
2022/01/09 04:47:02;;;;;;;1.33;0.53;;;;;;;2.85;100.00;98091.72;5071021;28;20617;-76
2022/01/09 04:49:35;;;;;;;0.20;0.20;;;;;;;2.87;100.00;98092.19;5069668;28;20615;-74
2022/01/09 04:52:02;;;;;;;0.37;0.37;;;;;;;2.85;100.00;98081.72;5071145;28;20262;-75
2022/01/09 04:54:28;;;;;;;0.50;0.50;;;;;;;2.83;100.00;98102.81;5070805;28;20463;-75
2022/01/09 04:56:53;;;;;;;0.20;0.20;;;;;;;2.80;100.00;98099.97;5070734;28;20518;-74
2022/01/09 04:59:18;;;;;;;1.90;1.40;;;;;;;2.73;100.00;98100.44;5069404;28;20205;-74
2022/01/09 05:01:44;;;;;;;0.60;0.60;;;;;;;2.76;100.00;98102.50;5069534;28;20273;-76
2022/01/09 05:04:09;;;;;;;0.03;0.03;;;;;;;2.79;100.00;98099.19;5071166;28;20201;-77
2022/01/09 05:06:34;;;;;;;1.03;0.33;;;;;;;2.74;100.00;98102.00;5069250;28;20649;-74
2022/01/09 05:09:00;;;;;;;0.80;0.80;;;;;;;2.71;100.00;98091.09;5070305;28;20437;-76
2022/01/09 05:11:25;;;;;;;0.50;0.50;;;;;;;2.75;100.00;98102.81;5070624;28;20175;-74
2022/01/09 05:13:51;;;;;;;0.50;0.50;;;;;;;2.72;100.00;98109.63;5069224;28;20257;-75
2022/01/09 05:16:16;;;;;;;0.40;0.30;;;;;;;2.73;100.00;98115.81;5070092;28;20257;-74
2022/01/09 05:18:51;;;;;;;0.30;0.30;;;;;;;2.71;100.00;98115.34;5069173;28;20673;-74
2022/01/09 05:21:17;;;;;;;0.30;0.30;;;;;;;2.65;100.00;98120.09;5070748;28;20174;-76
2022/01/09 05:23:43;;;;;;;0.50;0.50;;;;;;;2.62;100.00;98120.75;5070506;28;20591;-74
2022/01/09 05:26:08;;;;;;;0.07;0.07;;;;;;;2.64;100.00;98123.91;5069057;28;20182;-74
2022/01/09 05:28:33;;;;;;;0.40;0.30;;;;;;;2.64;100.00;98132.00;5068970;28;20175;-75
2022/01/09 05:30:59;;;;;;;0.40;0.40;;;;;;;2.62;100.00;98128.84;5069490;28;20201;-76
2022/01/09 05:33:24;;;;;;;0.10;0.10;;;;;;;2.60;100.00;98131.03;5069232;28;20224;-74
2022/01/09 05:35:49;;;;;;;0.63;0.63;;;;;;;2.60;100.00;98125.63;5070279;28;20299;-74
2022/01/09 05:38:17;;;;;;;0.30;0.30;;;;;;;2.59;100.00;98129.44;5070413;28;20185;-75
2022/01/09 05:40:42;;;;;;;0.30;0.30;;;;;;;2.57;100.00;98127.06;5070398;28;20568;-75
2022/01/09 05:43:08;;;;;;;0.20;0.20;;;;;;;2.57;100.00;98112.78;5070355;28;20304;-74
2022/01/09 05:45:33;;;;;;;0.60;0.60;;;;;;;2.50;100.00;98129.44;5068971;28;20190;-74
2022/01/09 05:47:59;;;;;;;0.40;0.40;;;;;;;2.50;100.00;98128.66;5069016;28;20572;-75
2022/01/09 05:50:25;;;;;;;0.10;0.10;;;;;;;2.51;100.00;98141.03;5068953;28;20638;-75
2022/01/09 05:52:50;;;;;;;0.30;0.30;;;;;;;2.46;100.00;98131.19;5068941;28;20181;-75
2022/01/09 05:55:15;;;;;;;0.10;0.10;;;;;;;2.48;100.00;98130.88;5068959;28;20537;-75
2022/01/09 05:57:41;;;;;;;0.03;0.03;;;;;;;2.45;100.00;98139.56;5070211;28;20206;-73
2022/01/09 06:00:07;;;;;;;0.97;0.20;;;;;;;2.43;100.00;98144.47;5070489;28;20194;-74
2022/01/09 06:02:32;;;;;;;0.63;0.63;;;;;;;2.43;100.00;98145.28;5068834;28;20170;-77
2022/01/09 06:04:58;;;;;;;0.63;0.63;;;;;;;2.38;100.00;98148.13;5069808;28;20409;-75
2022/01/09 06:07:23;;;;;;;0.50;0.50;;;;;;;2.43;100.00;98147.97;5068839;28;20225;-74
2022/01/09 06:09:49;;;;;;;0.40;0.40;;;;;;;2.45;100.00;98159.22;5070049;28;20181;-74
2022/01/09 06:12:14;;;;;;;0.50;0.50;;;;;;;2.41;100.00;98160.16;5069921;28;20247;-77
2022/01/09 06:14:41;;;;;;;0.50;0.50;;;;;;;2.45;100.00;98148.44;5070005;28;20198;-78
2022/01/09 06:17:07;;;;;;;0.63;0.63;;;;;;;2.40;100.00;98159.38;5070191;28;20642;-76
2022/01/09 06:19:32;;;;;;;0.00;0.00;;;;;;;2.43;100.00;98168.72;5070065;28;20202;-74
2022/01/09 06:21:58;;;;;;;0.50;0.50;;;;;;;2.41;100.00;98168.25;5069876;28;20243;-77
2022/01/09 06:24:23;;;;;;;1.00;0.37;;;;;;;2.44;100.00;98176.50;5068922;28;20580;-75
2022/01/09 06:26:48;;;;;;;0.43;0.30;;;;;;;2.39;100.00;98174.75;5069467;28;20178;-75
2022/01/09 06:29:14;;;;;;;0.70;0.63;;;;;;;2.33;100.00;98167.94;5070839;28;20174;-77
2022/01/09 06:31:39;;;;;;;0.40;0.40;;;;;;;2.39;100.00;98173.97;5073432;28;20217;-76
2022/01/09 06:34:04;;;;;;;0.40;0.40;;;;;;;2.41;100.00;98179.81;5072023;28;20559;-77
2022/01/09 06:36:30;;;;;;;0.23;0.23;;;;;;;2.38;100.00;98188.53;5073357;28;20182;-77
2022/01/09 06:38:58;;;;;;;0.47;0.40;;;;;;;2.34;100.00;98188.38;5071927;28;20244;-77
2022/01/09 06:41:23;;;;;;;0.10;0.10;;;;;;;2.36;100.00;98188.84;5073411;28;20205;-73
2022/01/09 06:43:49;;;;;;;0.50;0.40;;;;;;;2.32;100.00;98187.91;5073384;28;20539;-74
2022/01/09 06:46:14;;;;;;;0.57;0.57;;;;;;;2.35;100.00;98198.06;5073001;28;20183;-77
2022/01/09 06:48:41;;;;;;;0.40;0.07;;;;;;;2.33;100.00;98205.66;5073199;28;20206;-76
2022/01/09 06:51:06;;;;;;;0.07;0.07;;;;;;;2.30;100.00;98221.63;5073127;28;20173;-74
2022/01/09 06:53:32;;;;;;;0.00;0.00;;;;;;;2.28;100.00;98213.06;5072961;28;20179;-76
2022/01/09 06:55:57;;;;;;;0.23;0.23;;;;;;;2.24;100.00;98223.69;5071531;28;20415;-75
2022/01/09 06:58:22;;;;;;;0.00;0.00;;;;;;;2.22;100.00;98217.00;5073197;28;20178;-76
2022/01/09 07:00:48;;;;;;;0.30;0.30;;;;;;;2.20;100.00;98211.16;5072960;28;20170;-75
2022/01/09 07:03:14;;;;;;;0.17;0.17;;;;;;;2.20;100.00;98221.94;5071581;28;20178;-76
2022/01/09 07:05:39;;;;;;;0.20;0.20;;;;;;;2.18;100.00;98229.53;5071463;28;20654;-77
2022/01/09 07:08:05;;;;;;;0.20;0.20;;;;;;;2.17;100.00;98242.19;5072962;28;20192;-77
2022/01/09 07:10:31;;;;;;;0.20;0.20;;;;;;;2.13;100.00;98233.13;5073329;28;20171;-75
2022/01/09 07:12:56;;;;;;;0.50;0.40;;;;;;;2.11;100.00;98216.50;5074747;28;20262;-74
2022/01/09 07:15:22;;;;;;;0.10;0.10;;;;;;;2.11;100.00;98253.41;5079067;28;20198;-73
2022/01/09 07:17:48;;;;;;;0.37;0.37;;;;;;;2.09;100.00;98240.25;5073791;28;20258;-74
2022/01/09 07:20:13;;;;;;;0.40;0.40;;;;;;;2.08;100.00;98250.22;5072961;28;20248;-74
2022/01/09 07:22:38;;;;;;;0.67;0.67;;;;;;;2.06;100.00;98251.66;5071382;28;20194;-73
2022/01/09 07:25:05;;;;;;;0.23;0.23;;;;;;;1.98;100.00;98263.16;5073230;28;20167;-74
2022/01/09 07:27:32;;;;;;;0.03;0.03;;;;;;;1.93;100.00;98257.91;5071320;28;20189;-74
2022/01/09 07:29:58;;;;;;;0.27;0.27;;;;;;;1.85;100.00;98270.19;5072743;28;20178;-74
2022/01/09 07:32:23;;;;;;;0.30;0.30;;;;;;;1.82;100.00;98278.09;5072538;28;20927;-74
2022/01/09 07:34:49;;;;;;;0.27;0.27;;;;;;;1.78;100.00;98276.03;5072316;28;20256;-73
2022/01/09 07:37:14;;;;;;;0.53;0.53;;;;;;;1.72;100.00;98277.25;5072455;28;20185;-74
2022/01/09 07:39:39;;;;;;;4.93;4.43;;;;;;;1.71;100.00;98289.13;5070253;28;20922;-74
2022/01/09 07:42:05;;;;;;;0.63;0.63;;;;;;;1.70;100.00;98290.22;5072337;28;20232;-74
2022/01/09 07:44:30;;;;;;;2.70;0.80;;;;;;;1.60;100.00;98289.69;5072119;28;20202;-74
2022/01/09 07:46:56;;;;;;;0.30;0.30;;;;;;;1.57;100.00;98291.06;5071932;28;20175;-75
2022/01/09 07:49:22;;;;;;;0.00;0.00;;;;;;;1.49;100.00;98306.06;5071977;28;20639;-77
2022/01/09 07:51:47;;;;;;;0.27;0.27;;;;;;;1.43;100.00;98307.25;5070537;28;20179;-77
2022/01/09 07:54:12;;;;;;;0.40;0.40;;;;;;;1.38;100.00;98306.59;5071808;28;20413;-77
2022/01/09 07:56:38;;;;;;;0.87;0.53;;;;;;;1.39;100.00;98316.25;5071484;28;20186;-77
2022/01/09 07:59:03;;;;;;;1.13;0.93;;;;;;;1.37;100.00;98324.63;5071632;28;20207;-77
2022/01/09 08:01:29;;;;;;;0.90;0.90;;;;;;;1.34;100.00;98316.38;5071739;28;20178;-76
2022/01/09 08:03:54;;;;;;;2.10;0.37;;;;;;;1.32;100.00;98332.03;5070335;28;20189;-75
2022/01/09 08:06:20;;;;;;;0.00;0.00;;;;;;;1.31;100.00;98335.81;5071986;28;20179;-76
2022/01/09 08:08:45;;;;;;;0.20;0.20;;;;;;;1.30;100.00;98337.72;5070837;28;20186;-76
2022/01/09 08:11:10;;;;;;;0.37;0.30;;;;;;;1.29;100.00;98343.38;5071693;28;20178;-75
2022/01/09 08:13:35;;;;;;;0.77;0.77;;;;;;;1.27;100.00;98340.97;5071699;28;20170;-74
2022/01/09 08:16:01;;;;;;;2.53;0.63;;;;;;;1.28;100.00;98349.84;5070191;28;20342;-75
2022/01/09 08:18:26;;;;;;;0.00;0.00;;;;;;;1.30;100.00;98342.25;5071666;28;20631;-76
2022/01/09 08:20:52;;;;;;;0.57;0.57;;;;;;;1.27;100.00;98359.00;5071805;28;20175;-74
2022/01/09 08:23:17;;;;;;;0.27;0.27;;;;;;;1.28;100.00;98358.69;5071770;28;20283;-75
2022/01/09 08:25:44;;;;;;;0.00;0.00;;;;;;;1.26;100.00;98363.59;5069864;28;20185;-76
2022/01/09 08:28:09;;;;;;;0.10;0.10;;;;;;;1.23;100.00;98366.09;5069592;28;20235;-76
2022/01/09 08:30:35;;;;;;;3.53;1.33;;;;;;;1.15;100.00;98368.38;5071409;28;20413;-75
2022/01/09 08:33:00;;;;;;;0.30;0.30;;;;;;;1.12;100.00;98382.44;5067485;28;20178;-75
2022/01/09 08:35:25;;;;;;;0.00;0.00;;;;;;;1.08;100.00;98386.03;5071110;28;20524;-75
2022/01/09 08:37:51;;;;;;;8.40;1.30;;;;;;;1.02;100.00;98382.66;5071217;28;20206;-76
2022/01/09 08:40:22;;;;;;;0.20;0.20;;;;;;;0.96;100.00;98383.84;5071167;28;20680;-74
2022/01/09 08:42:49;;;;;;;0.33;0.33;;;;;;;0.86;100.00;98390.19;5071258;28;20209;-76
2022/01/09 08:45:16;;;;;;;0.10;0.10;;;;;;;0.76;100.00;98392.31;5071025;28;20413;-76
2022/01/09 08:47:42;;;;;;;0.10;0.10;;;;;;;0.66;100.00;98406.72;5071181;28;20779;-76
2022/01/09 08:50:10;;;;;;;0.30;0.30;;;;;;;0.53;100.00;98402.13;5069793;28;20431;-76
2022/01/09 08:52:35;;;;;;;0.13;0.13;;;;;;;0.41;100.00;98407.94;5070494;28;20471;-76
2022/01/09 08:55:03;;;;;;;0.43;0.43;;;;;;;0.34;100.00;98420.97;5069700;28;20931;-76
2022/01/09 08:57:29;;;;;;;0.00;0.00;;;;;;;0.27;100.00;98421.34;5070781;28;20182;-77
2022/01/09 08:59:54;;;;;;;0.00;0.00;;;;;;;0.24;100.00;98416.56;5070893;28;20461;-77
2022/01/09 09:02:20;;;;;;;5.40;1.97;;;;;;;0.25;100.00;98418.16;5069525;28;20468;-76
2022/01/09 09:04:45;;;;;;;0.20;0.20;;;;;;;0.27;100.00;98431.28;5070728;28;20232;-75
2022/01/09 09:07:10;;;;;;;2.10;2.10;;;;;;;0.31;100.00;98426.94;5069627;28;20649;-77
2022/01/09 09:09:37;;;;;;;1.03;1.03;;;;;;;0.33;100.00;98430.13;5070920;28;20643;-76
2022/01/09 09:12:03;;;;;;;0.17;0.17;;;;;;;0.43;100.00;98434.50;5069503;28;20224;-78
2022/01/09 09:14:29;;;;;;;1.23;1.10;;;;;;;0.52;100.00;98446.19;5070908;28;20428;-77
2022/01/09 09:16:55;;;;;;;1.17;0.63;;;;;;;0.57;100.00;98444.19;5070666;28;20496;-77
2022/01/09 09:19:20;;;;;;;0.10;0.10;;;;;;;0.67;100.00;98450.50;5069359;28;20225;-75
2022/01/09 09:21:46;;;;;;;1.00;1.00;;;;;;;0.77;100.00;98442.28;5069416;28;20646;-76
2022/01/09 09:24:13;;;;;;;0.10;0.10;;;;;;;0.85;100.00;98457.69;5069361;28;20190;-77
2022/01/09 09:26:38;;;;;;;3.90;2.57;;;;;;;0.94;100.00;98458.63;5068840;28;20400;-77
2022/01/09 09:29:05;;;;;;;1.30;0.50;;;;;;;1.04;100.00;98460.31;5070633;28;20420;-76
2022/01/09 09:31:31;;;;;;;0.30;0.30;;;;;;;1.10;100.00;98465.31;5069195;28;20225;-76
2022/01/09 09:33:56;;;;;;;0.73;0.73;;;;;;;1.18;100.00;98470.00;5069347;28;21031;-76
2022/01/09 09:36:23;;;;;;;0.30;0.30;;;;;;;1.26;100.00;98475.75;5070214;28;20170;-77
2022/01/09 09:38:49;;;;;;;0.00;0.00;;;;;;;1.31;100.00;98479.16;5069485;28;20241;-76
2022/01/09 09:41:14;;;;;;;0.60;0.50;;;;;;;1.38;100.00;98501.06;5066077;28;20982;-76
2022/01/09 09:43:40;;;;;;;0.00;0.00;;;;;;;1.44;100.00;98491.00;5069081;28;20198;-77
2022/01/09 09:46:05;;;;;;;0.00;0.00;;;;;;;1.50;100.00;98500.59;5069095;28;20179;-76
2022/01/09 09:48:30;;;;;;;0.70;0.70;;;;;;;1.54;100.00;98504.25;5070681;28;20510;-76
2022/01/09 09:50:56;;;;;;;1.03;0.97;;;;;;;1.64;100.00;98511.34;5070581;28;20224;-78
2022/01/09 09:53:21;;;;;;;0.00;0.00;;;;;;;1.69;100.00;98520.09;5070690;28;20209;-75
2022/01/09 09:55:48;;;;;;;0.17;0.17;;;;;;;1.76;100.00;98522.41;5073126;28;20177;-76
2022/01/09 09:58:14;;;;;;;1.03;0.83;;;;;;;1.82;100.00;98529.25;5070963;28;20181;-76
2022/01/09 10:00:40;;;;;;;0.60;0.60;;;;;;;1.89;100.00;98524.28;5070355;28;20488;-77
2022/01/09 10:03:07;;;;;;;0.60;0.60;;;;;;;1.97;100.00;98530.84;5066789;28;20642;-78
2022/01/09 10:05:35;;;;;;;0.57;0.50;;;;;;;2.01;100.00;98532.63;5073762;28;20179;-81
2022/01/09 10:08:12;;;;;;;3.60;0.93;;;;;;;2.08;100.00;98530.31;5085894;28;20186;-79
2022/01/09 10:10:39;;;;;;;0.00;0.00;;;;;;;2.14;100.00;98528.31;5072768;28;20464;-74
2022/01/09 10:13:17;;;;;;;7.33;1.27;;;;;;;2.20;100.00;98537.88;5074226;28;20432;-76
2022/01/09 10:15:48;;;;;;;0.47;0.47;;;;;;;2.27;100.00;98523.97;5072533;28;20424;-75
2022/01/09 10:18:34;;;;;;;0.70;0.70;;;;;;;2.33;100.00;98538.94;5072863;28;20178;-76
2022/01/09 10:21:17;;;;;;;1.60;1.50;;;;;;;2.42;100.00;98541.69;5072426;28;20186;-75
2022/01/09 10:24:02;;;;;;;0.60;0.60;;;;;;;2.50;100.00;98544.47;5073690;28;20186;-76
2022/01/09 10:26:30;;;;;;;0.00;0.00;;;;;;;2.56;100.00;98553.22;5071941;28;20416;-73
2022/01/09 10:28:55;;;;;;;0.00;0.00;;;;;;;2.65;100.00;98554.09;5072106;28;20182;-72
2022/01/09 10:31:21;;;;;;;1.63;1.33;;;;;;;2.72;100.00;98559.84;5073701;28;20177;-73
2022/01/09 10:34:07;;;;;;;1.57;1.47;;;;;;;2.80;100.00;98567.22;5073559;28;20175;-72
2022/01/09 10:36:43;;;;;;;0.93;0.87;;;;;;;2.86;100.00;98573.28;5072108;28;20694;-73
2022/01/09 10:39:16;;;;;;;0.87;0.80;;;;;;;2.93;100.00;98565.56;5072076;28;20205;-73
2022/01/09 10:41:58;;;;;;;0.93;0.93;;;;;;;3.07;100.00;98570.91;5072179;28;20646;-72
2022/01/09 10:44:30;;;;;;;1.13;1.03;;;;;;;3.20;100.00;98575.44;5073285;28;20258;-72
2022/01/09 10:47:22;;;;;;;4.00;1.40;;;;;;;3.29;100.00;98581.66;5073208;28;20167;-73
2022/01/09 10:49:50;;;;;;;7.80;1.70;;;;;;;3.38;100.00;98592.50;5070997;28;20186;-72
2022/01/09 10:52:29;;;;;;;6.60;2.80;;;;;;;3.43;100.00;98592.38;5073099;28;20171;-72
2022/01/09 10:54:57;;;;;;;7.50;2.23;;;;;;;3.47;100.00;98596.84;5071634;28;20182;-73
2022/01/09 10:57:24;;;;;;;2.13;1.93;;;;;;;3.51;100.00;98605.91;5071803;28;20719;-73
2022/01/09 10:59:50;;;;;;;0.87;0.87;;;;;;;3.54;100.00;98599.09;5072945;28;20263;-72
2022/01/09 11:02:16;;;;;;;2.60;2.00;;;;;;;3.55;100.00;98617.69;5071645;28;20175;-73
2022/01/09 11:04:44;;;;;;;18.50;3.03;;;;;;;3.59;100.00;98605.16;5071509;28;20179;-72
2022/01/09 11:07:10;;;;;;;3.00;1.20;;;;;;;3.63;100.00;98604.56;5072998;28;20167;-72
2022/01/09 11:09:38;;;;;;;2.47;2.37;;;;;;;3.65;100.00;98621.22;5071650;28;20189;-71
2022/01/09 11:12:06;;;;;;;1.53;1.43;;;;;;;3.65;100.00;98605.81;5071392;28;20182;-72
2022/01/09 11:14:36;;;;;;;8.90;0.97;;;;;;;3.65;100.00;98622.03;5072014;28;20171;-73
2022/01/09 11:17:04;;;;;;;28.47;1.43;;;;;;;3.68;100.00;98626.00;5072823;28;20675;-72
2022/01/09 11:19:30;;;;;;;4.70;0.67;;;;;;;3.70;100.00;98632.69;5072449;28;20229;-72
2022/01/09 11:22:01;;;;;;;1.60;1.47;;;;;;;3.74;100.00;98640.97;5071280;28;20229;-72
2022/01/09 11:25:04;;;;;;;0.43;0.43;;;;;;;3.78;100.00;98637.34;5071236;28;20213;-72
2022/01/09 11:27:29;;;;;;;1.13;1.13;;;;;;;3.84;100.00;98648.78;5070711;28;20182;-72
2022/01/09 11:30:03;;;;;;;0.60;0.60;;;;;;;3.87;100.00;98646.25;5071031;28;20666;-72
2022/01/09 11:32:46;;;;;;;0.47;0.47;;;;;;;3.96;100.00;98659.03;5072164;28;20178;-74
2022/01/09 11:35:49;;;;;;;1.10;0.70;;;;;;;4.00;100.00;98668.09;5072064;28;20179;-72
2022/01/09 11:38:23;;;;;;;2.13;0.93;;;;;;;4.04;100.00;98659.03;5072237;28;20178;-76
2022/01/09 11:40:49;;;;;;;0.50;0.50;;;;;;;4.08;100.00;98681.66;5070738;28;20214;-72